createdAt,value
2019-04-23T00:01:53.635Z,19.70
2019-04-23T00:06:59.414Z,19.33
2019-04-23T00:12:06.558Z,20.80
2019-04-23T00:17:12.052Z,19.40
2019-04-23T00:22:20.197Z,18.50
2019-04-23T00:27:30.347Z,18.27
2019-04-23T00:37:37.358Z,19.30
2019-04-23T00:47:52.722Z,18.67
2019-04-23T00:52:57.482Z,19.10
2019-04-23T00:58:10.389Z,18.93
2019-04-23T01:03:12.134Z,20.27
2019-04-23T01:08:18.464Z,19.00
2019-04-23T01:18:53.281Z,19.03
2019-04-23T01:23:47.081Z,18.70
2019-04-23T01:29:14.745Z,19.60
2019-04-23T01:34:25.795Z,18.47
2019-04-23T01:39:34.295Z,20.03
2019-04-23T01:54:52.620Z,20.33
2019-04-23T02:00:03.178Z,19.87
2019-04-23T02:05:09.830Z,21.43
2019-04-23T02:15:18.054Z,19.97
2019-04-23T02:25:44.051Z,20.30
2019-04-23T02:31:03.830Z,19.47
2019-04-23T02:46:13.388Z,23.27
2019-04-23T02:51:34.611Z,21.80
2019-04-23T02:56:49.296Z,22.60
2019-04-23T03:01:51.715Z,22.93
2019-04-23T03:07:03.215Z,21.57
2019-04-23T03:12:08.224Z,21.10
2019-04-23T03:17:10.063Z,21.00
2019-04-23T03:22:45.136Z,19.53
2019-04-23T03:27:34.198Z,19.10
2019-04-23T03:33:37.699Z,19.63
2019-04-23T03:38:00.764Z,19.43
2019-04-23T03:43:11.774Z,18.30
2019-04-23T03:48:17.868Z,19.60
2019-04-23T03:53:18.422Z,17.83
2019-04-23T03:58:38.757Z,16.47
2019-04-23T04:03:55.194Z,17.10
2019-04-23T04:13:55.336Z,17.07
2019-04-23T04:24:05.300Z,15.47
2019-04-23T04:29:01.244Z,14.67
2019-04-23T04:34:21.530Z,14.00
2019-04-23T04:39:19.501Z,13.47
2019-04-23T04:49:36.405Z,12.07
2019-04-23T04:54:26.249Z,13.23
2019-04-23T04:59:48.036Z,10.43
2019-04-23T05:10:08.920Z,11.00
2019-04-23T05:20:04.535Z,10.67
2019-04-23T05:25:04.113Z,9.73
2019-04-23T05:30:23.029Z,9.40
2019-04-23T05:35:33.324Z,9.33
2019-04-23T05:45:39.889Z,9.83
2019-04-23T05:55:55.546Z,7.87
2019-04-23T06:01:49.778Z,8.63
2019-04-23T06:11:45.131Z,8.77
2019-04-23T06:27:08.719Z,7.23
2019-04-23T06:32:06.362Z,7.90
2019-04-23T06:37:24.530Z,7.60
2019-04-23T06:42:29.075Z,5.93
2019-04-23T06:47:35.609Z,7.57
2019-04-23T06:52:41.513Z,5.90
2019-04-23T06:57:52.182Z,6.07
2019-04-23T07:02:59.723Z,6.97
2019-04-23T07:08:02.957Z,6.60
2019-04-23T07:13:14.401Z,8.20
2019-04-23T07:18:18.115Z,7.73
2019-04-23T07:23:29.527Z,6.90
2019-04-23T07:28:54.625Z,5.93
2019-04-23T07:39:06.105Z,8.83
2019-04-23T07:44:26.468Z,6.20
2019-04-23T07:49:23.608Z,10.43
2019-04-23T07:54:37.115Z,25.20
2019-04-23T07:59:43.068Z,8.97
2019-04-23T08:04:57.933Z,6.57
2019-04-23T08:09:58.163Z,9.57
2019-04-23T08:15:00.010Z,6.33
2019-04-23T08:25:26.021Z,6.87
2019-04-23T08:30:24.102Z,10.40
2019-04-23T08:35:35.148Z,8.10
2019-04-23T08:40:43.226Z,8.10
2019-04-23T08:45:58.241Z,6.00
2019-04-23T08:51:19.457Z,9.57
2019-04-23T08:56:09.018Z,9.33
2019-04-23T09:01:17.994Z,11.63
2019-04-23T09:06:21.699Z,13.53
2019-04-23T09:11:41.839Z,8.80
2019-04-23T09:16:46.879Z,19.80
2019-04-23T09:21:40.353Z,10.60
2019-04-23T09:26:53.662Z,14.37
2019-04-23T09:37:18.783Z,13.00
2019-04-23T09:42:50.366Z,9.97
2019-04-23T09:47:58.719Z,12.83
2019-04-23T09:53:09.614Z,10.47
2019-04-23T09:58:07.816Z,10.93
2019-04-23T10:03:03.624Z,10.30
2019-04-23T10:08:04.133Z,8.40
2019-04-23T10:13:02.056Z,13.13
2019-04-23T10:18:07.900Z,21.20
2019-04-23T10:23:14.227Z,12.30
2019-04-23T10:28:25.041Z,7.67
2019-04-23T10:33:31.790Z,7.43
2019-04-23T10:38:41.687Z,10.37
2019-04-23T10:43:48.388Z,10.40
2019-04-23T10:59:47.279Z,8.37
2019-04-23T11:16:57.300Z,8.50
2019-04-23T11:22:20.106Z,11.60
2019-04-23T11:27:14.700Z,8.87
2019-04-23T11:32:40.825Z,18.67
2019-04-23T11:37:39.256Z,9.13
2019-04-23T11:57:59.402Z,10.23
2019-04-23T12:03:07.467Z,24.77
2019-04-23T12:08:37.799Z,12.00
2019-04-23T12:13:43.462Z,10.30
2019-04-23T12:18:51.524Z,7.53
2019-04-23T12:23:54.497Z,16.50
2019-04-23T12:28:57.042Z,8.57
2019-04-23T12:34:05.189Z,6.83
2019-04-23T12:39:24.060Z,7.17
2019-04-23T12:44:22.375Z,8.50
2019-04-23T12:49:47.924Z,6.53
2019-04-23T12:54:52.293Z,9.47
2019-04-23T12:59:44.074Z,9.83
2019-04-23T13:04:48.624Z,6.60
2019-04-23T13:10:17.337Z,13.17
2019-04-23T13:15:05.273Z,8.70
2019-04-23T13:20:15.200Z,9.03
2019-04-23T13:41:01.096Z,8.87
2019-04-23T13:51:19.375Z,9.90
2019-04-23T13:56:24.867Z,6.73
2019-04-23T14:11:34.594Z,8.27
2019-04-23T14:21:55.529Z,8.40
2019-04-23T14:27:05.860Z,7.13
2019-04-23T14:32:08.768Z,8.27
2019-04-23T14:37:12.139Z,7.77
2019-04-23T14:42:24.611Z,8.70
2019-04-23T14:47:27.878Z,8.87
2019-04-23T14:52:38.148Z,8.07
2019-04-23T15:02:51.923Z,8.37
2019-04-23T15:07:58.409Z,7.90
2019-04-23T15:13:06.889Z,8.27
2019-04-23T15:18:21.317Z,8.40
2019-04-23T15:23:33.019Z,8.10
2019-04-23T15:28:07.359Z,7.40
2019-04-23T15:33:35.381Z,8.27
2019-04-23T15:43:49.528Z,7.47
2019-04-23T15:49:03.440Z,7.77
2019-04-23T15:54:02.801Z,6.87
2019-04-23T16:03:47.149Z,7.80
2019-04-23T16:09:09.697Z,7.37
2019-04-23T16:14:34.212Z,8.23
2019-04-23T16:19:47.924Z,6.07
2019-04-23T16:24:48.769Z,7.97
2019-04-23T16:30:07.539Z,8.20
2019-04-23T16:35:12.081Z,7.23
2019-04-23T16:40:31.514Z,8.07
2019-04-23T16:45:21.180Z,6.70
2019-04-23T16:50:56.553Z,7.30
2019-04-23T16:55:34.494Z,8.67
2019-04-23T17:00:38.089Z,7.80
2019-04-23T17:05:53.676Z,8.07
2019-04-23T17:11:09.735Z,7.33
2019-04-23T17:16:16.765Z,9.07
2019-04-23T17:21:04.762Z,7.40
2019-04-23T17:31:32.430Z,6.70
2019-04-23T17:41:57.458Z,7.97
2019-04-23T17:46:53.426Z,8.13
2019-04-23T17:52:03.223Z,7.47
2019-04-23T18:02:41.956Z,9.63
2019-04-23T18:07:31.941Z,8.60
2019-04-23T18:12:40.507Z,8.63
2019-04-23T18:27:52.869Z,8.10
2019-04-23T18:38:23.655Z,8.70
2019-04-23T18:43:24.042Z,8.07
2019-04-23T18:53:48.559Z,9.23
2019-04-23T18:58:54.424Z,8.17
2019-04-23T19:14:19.925Z,9.90
2019-04-23T19:19:25.003Z,9.77
2019-04-23T19:24:27.628Z,9.47
2019-04-23T19:39:45.325Z,9.60
2019-04-23T19:44:48.204Z,9.47
2019-04-23T19:49:57.063Z,9.50
2019-04-23T19:55:17.388Z,8.47
2019-04-23T20:00:11.309Z,9.37
2019-04-23T20:05:43.276Z,9.77
2019-04-23T20:10:28.181Z,9.20
2019-04-23T20:15:41.113Z,10.20
2019-04-23T20:20:51.364Z,11.10
2019-04-23T20:26:12.201Z,10.17
2019-04-23T20:31:13.903Z,10.87
2019-04-23T20:36:08.487Z,10.37
2019-04-23T20:41:15.331Z,10.70
2019-04-23T20:46:16.427Z,10.53
2019-04-23T20:51:24.690Z,10.07
2019-04-23T20:56:37.014Z,10.43
2019-04-23T21:02:10.222Z,10.40
2019-04-23T21:12:06.624Z,10.13
2019-04-23T21:17:04.115Z,10.63
2019-04-23T21:27:39.853Z,9.93
2019-04-23T21:32:43.719Z,10.27
2019-04-23T21:38:00.398Z,10.93
2019-04-23T21:43:01.432Z,11.17
2019-04-23T21:48:08.365Z,11.70
2019-04-23T21:53:06.148Z,10.57
2019-04-23T21:58:25.975Z,15.57
2019-04-23T22:03:31.456Z,10.37
2019-04-23T22:08:26.910Z,11.03
2019-04-23T22:13:53.891Z,15.67
2019-04-23T22:18:57.280Z,15.93
2019-04-23T22:23:57.692Z,17.20
2019-04-23T22:29:03.677Z,11.57
2019-04-23T22:34:15.775Z,16.77
2019-04-23T22:39:10.134Z,15.20
2019-04-23T22:49:41.939Z,13.90
2019-04-23T22:54:49.623Z,18.77
2019-04-23T22:59:54.378Z,12.43
2019-04-23T23:05:10.360Z,11.07
2019-04-23T23:10:06.815Z,12.73
2019-04-23T23:15:23.666Z,10.40
2019-04-23T23:20:21.122Z,11.27
2019-04-23T23:25:24.635Z,12.53
2019-04-23T23:42:43.383Z,10.90
2019-04-23T23:47:44.820Z,10.97
2019-04-23T23:58:23.524Z,16.30
